sensor_id;sensor_type;location;lat;lon;timestamp;pressure;altitude;pressure_sealevel;temperature;humidity
38880;BME280;25887;30.194;-97.880;2023-08-12T00:01:29;97832.72;;;42.46;21.33
38880;BME280;25887;30.194;-97.880;2023-08-12T00:03:55;97835.44;;;42.40;21.63
38880;BME280;25887;30.194;-97.880;2023-08-12T00:06:21;97828.00;;;42.35;21.65
38880;BME280;25887;30.194;-97.880;2023-08-12T00:08:47;97824.28;;;42.29;21.71
38880;BME280;25887;30.194;-97.880;2023-08-12T00:11:14;97827.63;;;42.25;21.77
38880;BME280;25887;30.194;-97.880;2023-08-12T00:13:40;97828.50;;;42.19;22.27
38880;BME280;25887;30.194;-97.880;2023-08-12T00:16:06;97832.66;;;42.15;22.08
38880;BME280;25887;30.194;-97.880;2023-08-12T00:18:32;97831.44;;;42.11;22.13
38880;BME280;25887;30.194;-97.880;2023-08-12T00:21:11;97828.13;;;42.02;22.53
38880;BME280;25887;30.194;-97.880;2023-08-12T00:23:39;97826.28;;;41.96;22.70
38880;BME280;25887;30.194;-97.880;2023-08-12T00:26:10;97820.31;;;41.87;22.31
38880;BME280;25887;30.194;-97.880;2023-08-12T00:28:36;97826.97;;;41.78;22.45
38880;BME280;25887;30.194;-97.880;2023-08-12T00:31:03;97834.22;;;41.71;22.19
38880;BME280;25887;30.194;-97.880;2023-08-12T00:33:29;97829.88;;;41.63;22.53
38880;BME280;25887;30.194;-97.880;2023-08-12T00:35:55;97835.31;;;41.57;22.75
38880;BME280;25887;30.194;-97.880;2023-08-12T00:38:22;97829.94;;;41.50;22.98
38880;BME280;25887;30.194;-97.880;2023-08-12T00:40:49;97840.72;;;41.43;22.99
38880;BME280;25887;30.194;-97.880;2023-08-12T00:43:15;97850.47;;;41.38;23.27
38880;BME280;25887;30.194;-97.880;2023-08-12T00:45:41;97853.16;;;41.31;23.17
38880;BME280;25887;30.194;-97.880;2023-08-12T00:48:08;97852.31;;;41.24;23.60
38880;BME280;25887;30.194;-97.880;2023-08-12T00:50:36;97849.66;;;41.17;23.60
38880;BME280;25887;30.194;-97.880;2023-08-12T00:53:04;97857.72;;;41.11;23.86
38880;BME280;25887;30.194;-97.880;2023-08-12T00:55:33;97862.06;;;41.05;24.08
38880;BME280;25887;30.194;-97.880;2023-08-12T00:58:00;97864.13;;;40.97;24.28
38880;BME280;25887;30.194;-97.880;2023-08-12T01:00:26;97871.38;;;40.89;24.44
38880;BME280;25887;30.194;-97.880;2023-08-12T01:02:54;97868.84;;;40.81;24.54
38880;BME280;25887;30.194;-97.880;2023-08-12T01:05:25;97872.97;;;40.77;24.43
38880;BME280;25887;30.194;-97.880;2023-08-12T01:07:51;97879.81;;;40.73;24.72
38880;BME280;25887;30.194;-97.880;2023-08-12T01:10:20;97883.34;;;40.67;24.78
38880;BME280;25887;30.194;-97.880;2023-08-12T01:13:10;97888.91;;;40.59;24.77
38880;BME280;25887;30.194;-97.880;2023-08-12T01:15:40;97886.59;;;40.49;24.83
38880;BME280;25887;30.194;-97.880;2023-08-12T01:18:09;97897.31;;;40.43;24.86
38880;BME280;25887;30.194;-97.880;2023-08-12T01:20:37;97908.06;;;40.36;25.04
38880;BME280;25887;30.194;-97.880;2023-08-12T01:23:10;97909.06;;;40.28;25.20
38880;BME280;25887;30.194;-97.880;2023-08-12T01:25:37;97911.09;;;40.20;25.33
38880;BME280;25887;30.194;-97.880;2023-08-12T01:28:03;97920.38;;;40.10;25.51
38880;BME280;25887;30.194;-97.880;2023-08-12T01:30:30;97925.94;;;40.02;25.86
38880;BME280;25887;30.194;-97.880;2023-08-12T01:33:36;97919.84;;;39.94;25.95
38880;BME280;25887;30.194;-97.880;2023-08-12T01:36:10;97930.75;;;39.86;25.83
38880;BME280;25887;30.194;-97.880;2023-08-12T01:38:39;97933.41;;;39.79;26.10
38880;BME280;25887;30.194;-97.880;2023-08-12T01:41:12;97940.59;;;39.72;26.11
38880;BME280;25887;30.194;-97.880;2023-08-12T01:43:43;97943.22;;;39.65;26.19
38880;BME280;25887;30.194;-97.880;2023-08-12T01:46:10;97945.03;;;39.58;26.46
38880;BME280;25887;30.194;-97.880;2023-08-12T01:48:36;97948.25;;;39.53;26.14
38880;BME280;25887;30.194;-97.880;2023-08-12T01:51:02;97961.69;;;39.47;26.37
38880;BME280;25887;30.194;-97.880;2023-08-12T01:53:29;97968.66;;;39.41;26.97
38880;BME280;25887;30.194;-97.880;2023-08-12T01:55:55;97961.97;;;39.31;26.55
38880;BME280;25887;30.194;-97.880;2023-08-12T01:58:21;97972.84;;;39.22;27.18
38880;BME280;25887;30.194;-97.880;2023-08-12T02:00:47;97973.78;;;39.15;26.98
38880;BME280;25887;30.194;-97.880;2023-08-12T02:03:13;97971.38;;;39.05;27.27
38880;BME280;25887;30.194;-97.880;2023-08-12T02:05:40;97987.41;;;38.98;27.29
38880;BME280;25887;30.194;-97.880;2023-08-12T02:08:07;97984.69;;;38.92;27.42
38880;BME280;25887;30.194;-97.880;2023-08-12T02:10:33;97994.53;;;38.85;27.91
38880;BME280;25887;30.194;-97.880;2023-08-12T02:12:59;98004.78;;;38.81;28.43
38880;BME280;25887;30.194;-97.880;2023-08-12T02:15:25;98001.56;;;38.71;28.66
38880;BME280;25887;30.194;-97.880;2023-08-12T02:17:51;98015.91;;;38.63;28.89
38880;BME280;25887;30.194;-97.880;2023-08-12T02:20:17;98020.56;;;38.55;29.45
38880;BME280;25887;30.194;-97.880;2023-08-12T02:22:44;98034.91;;;38.47;29.94
38880;BME280;25887;30.194;-97.880;2023-08-12T02:25:10;98037.31;;;38.42;29.51
38880;BME280;25887;30.194;-97.880;2023-08-12T02:27:36;98039.72;;;38.37;30.23
38880;BME280;25887;30.194;-97.880;2023-08-12T02:30:03;98042.47;;;38.29;30.65
38880;BME280;25887;30.194;-97.880;2023-08-12T02:32:29;98043.94;;;38.16;31.28
38880;BME280;25887;30.194;-97.880;2023-08-12T02:34:55;98045.38;;;38.04;32.01
38880;BME280;25887;30.194;-97.880;2023-08-12T02:37:21;98042.97;;;37.95;31.89
38880;BME280;25887;30.194;-97.880;2023-08-12T02:39:47;98052.94;;;37.86;32.60
38880;BME280;25887;30.194;-97.880;2023-08-12T02:42:13;98050.66;;;37.75;32.55
38880;BME280;25887;30.194;-97.880;2023-08-12T02:44:40;98064.09;;;37.67;33.32
38880;BME280;25887;30.194;-97.880;2023-08-12T02:47:06;98066.03;;;37.58;33.62
38880;BME280;25887;30.194;-97.880;2023-08-12T02:49:32;98067.09;;;37.49;33.85
38880;BME280;25887;30.194;-97.880;2023-08-12T02:52:00;98066.31;;;37.40;33.72
38880;BME280;25887;30.194;-97.880;2023-08-12T02:54:26;98075.41;;;37.31;34.38
38880;BME280;25887;30.194;-97.880;2023-08-12T02:56:52;98069.25;;;37.22;34.73
38880;BME280;25887;30.194;-97.880;2023-08-12T02:59:18;98078.19;;;37.15;34.97
38880;BME280;25887;30.194;-97.880;2023-08-12T03:01:46;98089.13;;;37.05;35.43
38880;BME280;25887;30.194;-97.880;2023-08-12T03:04:12;98081.13;;;36.97;35.42
38880;BME280;25887;30.194;-97.880;2023-08-12T03:06:39;98097.03;;;36.90;35.81
38880;BME280;25887;30.194;-97.880;2023-08-12T03:09:05;98106.94;;;36.81;35.50
38880;BME280;25887;30.194;-97.880;2023-08-12T03:11:31;98101.44;;;36.75;35.92
38880;BME280;25887;30.194;-97.880;2023-08-12T03:13:57;98106.44;;;36.70;35.81
38880;BME280;25887;30.194;-97.880;2023-08-12T03:16:23;98110.63;;;36.64;36.04
38880;BME280;25887;30.194;-97.880;2023-08-12T03:18:49;98106.84;;;36.59;36.51
38880;BME280;25887;30.194;-97.880;2023-08-12T03:21:15;98116.53;;;36.51;36.44
38880;BME280;25887;30.194;-97.880;2023-08-12T03:23:41;98111.03;;;36.45;36.65
38880;BME280;25887;30.194;-97.880;2023-08-12T03:26:07;98105.00;;;36.35;36.45
38880;BME280;25887;30.194;-97.880;2023-08-12T03:28:33;98115.19;;;36.31;36.84
38880;BME280;25887;30.194;-97.880;2023-08-12T03:31:00;98117.53;;;36.26;37.04
38880;BME280;25887;30.194;-97.880;2023-08-12T03:33:26;98122.59;;;36.21;37.15
38880;BME280;25887;30.194;-97.880;2023-08-12T03:35:53;98127.09;;;36.12;37.05
38880;BME280;25887;30.194;-97.880;2023-08-12T03:38:19;98137.81;;;36.04;37.45
38880;BME280;25887;30.194;-97.880;2023-08-12T03:40:45;98136.09;;;35.95;37.54
38880;BME280;25887;30.194;-97.880;2023-08-12T03:43:11;98149.31;;;35.88;37.47
38880;BME280;25887;30.194;-97.880;2023-08-12T03:45:44;98165.00;;;35.83;37.82
38880;BME280;25887;30.194;-97.880;2023-08-12T03:48:10;98160.31;;;35.77;37.70
38880;BME280;25887;30.194;-97.880;2023-08-12T03:50:38;98157.63;;;35.69;37.92
38880;BME280;25887;30.194;-97.880;2023-08-12T03:53:05;98165.28;;;35.64;38.03
38880;BME280;25887;30.194;-97.880;2023-08-12T03:55:34;98164.94;;;35.59;37.84
38880;BME280;25887;30.194;-97.880;2023-08-12T03:58:01;98162.94;;;35.53;37.99
38880;BME280;25887;30.194;-97.880;2023-08-12T04:00:28;98171.28;;;35.50;38.54
38880;BME280;25887;30.194;-97.880;2023-08-12T04:02:54;98173.25;;;35.48;38.27
38880;BME280;25887;30.194;-97.880;2023-08-12T04:05:20;98184.63;;;35.41;38.37
38880;BME280;25887;30.194;-97.880;2023-08-12T04:07:47;98178.88;;;35.36;38.42
38880;BME280;25887;30.194;-97.880;2023-08-12T04:10:13;98189.03;;;35.33;38.86
38880;BME280;25887;30.194;-97.880;2023-08-12T04:12:40;98184.34;;;35.27;38.77
38880;BME280;25887;30.194;-97.880;2023-08-12T04:15:08;98181.31;;;35.22;38.88
38880;BME280;25887;30.194;-97.880;2023-08-12T04:17:34;98192.34;;;35.18;39.09
38880;BME280;25887;30.194;-97.880;2023-08-12T04:20:01;98194.47;;;35.15;39.09
38880;BME280;25887;30.194;-97.880;2023-08-12T04:22:28;98194.13;;;35.10;38.98
38880;BME280;25887;30.194;-97.880;2023-08-12T04:24:54;98201.63;;;35.06;39.20
38880;BME280;25887;30.194;-97.880;2023-08-12T04:27:20;98202.25;;;35.00;39.44
38880;BME280;25887;30.194;-97.880;2023-08-12T04:29:46;98210.59;;;34.97;39.19
38880;BME280;25887;30.194;-97.880;2023-08-12T04:32:12;98220.88;;;34.92;39.70
38880;BME280;25887;30.194;-97.880;2023-08-12T04:34:39;98221.47;;;34.86;39.45
38880;BME280;25887;30.194;-97.880;2023-08-12T04:37:05;98230.97;;;34.80;39.69
38880;BME280;25887;30.194;-97.880;2023-08-12T04:39:31;98229.59;;;34.76;39.79
38880;BME280;25887;30.194;-97.880;2023-08-12T04:41:58;98229.09;;;34.73;39.65
38880;BME280;25887;30.194;-97.880;2023-08-12T04:44:24;98232.88;;;34.70;39.60
38880;BME280;25887;30.194;-97.880;2023-08-12T04:46:50;98229.72;;;34.67;39.66
38880;BME280;25887;30.194;-97.880;2023-08-12T04:49:18;98244.34;;;34.62;39.76
38880;BME280;25887;30.194;-97.880;2023-08-12T04:51:46;98250.84;;;34.60;39.62
38880;BME280;25887;30.194;-97.880;2023-08-12T04:54:12;98248.50;;;34.57;39.72
38880;BME280;25887;30.194;-97.880;2023-08-12T04:56:38;98251.44;;;34.54;39.83
38880;BME280;25887;30.194;-97.880;2023-08-12T04:59:04;98249.94;;;34.51;40.09
38880;BME280;25887;30.194;-97.880;2023-08-12T05:01:30;98252.94;;;34.48;39.94
38880;BME280;25887;30.194;-97.880;2023-08-12T05:03:57;98247.22;;;34.43;39.99
38880;BME280;25887;30.194;-97.880;2023-08-12T05:06:23;98251.03;;;34.41;40.24
38880;BME280;25887;30.194;-97.880;2023-08-12T05:08:50;98249.63;;;34.36;40.00
38880;BME280;25887;30.194;-97.880;2023-08-12T05:11:16;98252.44;;;34.35;39.81
38880;BME280;25887;30.194;-97.880;2023-08-12T05:13:42;98247.38;;;34.32;40.11
38880;BME280;25887;30.194;-97.880;2023-08-12T05:16:08;98249.69;;;34.27;40.08
38880;BME280;25887;30.194;-97.880;2023-08-12T05:18:34;98248.47;;;34.21;39.86
38880;BME280;25887;30.194;-97.880;2023-08-12T05:21:01;98254.97;;;34.19;39.71
38880;BME280;25887;30.194;-97.880;2023-08-12T05:23:27;98263.56;;;34.13;40.11
38880;BME280;25887;30.194;-97.880;2023-08-12T05:25:53;98264.16;;;34.06;40.08
38880;BME280;25887;30.194;-97.880;2023-08-12T05:28:19;98262.97;;;34.01;40.05
38880;BME280;25887;30.194;-97.880;2023-08-12T05:30:46;98260.88;;;33.95;40.43
38880;BME280;25887;30.194;-97.880;2023-08-12T05:35:57;98281.38;;;33.85;40.59
38880;BME280;25887;30.194;-97.880;2023-08-12T05:38:23;98277.63;;;33.77;40.36
38880;BME280;25887;30.194;-97.880;2023-08-12T05:40:49;98287.75;;;33.74;40.68
38880;BME280;25887;30.194;-97.880;2023-08-12T05:43:15;98289.06;;;33.70;41.23
38880;BME280;25887;30.194;-97.880;2023-08-12T05:45:41;98296.50;;;33.66;41.35
38880;BME280;25887;30.194;-97.880;2023-08-12T05:48:07;98293.31;;;33.63;41.24
38880;BME280;25887;30.194;-97.880;2023-08-12T05:50:34;98293.59;;;33.60;41.52
38880;BME280;25887;30.194;-97.880;2023-08-12T05:53:00;98302.16;;;33.53;41.77
38880;BME280;25887;30.194;-97.880;2023-08-12T05:55:26;98299.66;;;33.52;41.78
38880;BME280;25887;30.194;-97.880;2023-08-12T05:57:52;98299.94;;;33.49;42.12
38880;BME280;25887;30.194;-97.880;2023-08-12T06:00:18;98311.75;;;33.46;41.84
38880;BME280;25887;30.194;-97.880;2023-08-12T06:02:44;98298.84;;;33.42;42.22
38880;BME280;25887;30.194;-97.880;2023-08-12T06:05:10;98309.81;;;33.39;42.03
38880;BME280;25887;30.194;-97.880;2023-08-12T06:07:37;98310.19;;;33.34;42.78
38880;BME280;25887;30.194;-97.880;2023-08-12T06:10:03;98306.28;;;33.29;42.40
38880;BME280;25887;30.194;-97.880;2023-08-12T06:12:30;98313.59;;;33.26;42.40
38880;BME280;25887;30.194;-97.880;2023-08-12T06:14:56;98308.56;;;33.23;42.83
38880;BME280;25887;30.194;-97.880;2023-08-12T06:17:22;98309.81;;;33.19;42.71
38880;BME280;25887;30.194;-97.880;2023-08-12T06:19:48;98317.28;;;33.16;42.88
38880;BME280;25887;30.194;-97.880;2023-08-12T06:22:14;98308.72;;;33.12;43.64
38880;BME280;25887;30.194;-97.880;2023-08-12T06:24:40;98308.31;;;33.07;43.27
38880;BME280;25887;30.194;-97.880;2023-08-12T06:27:07;98302.28;;;33.05;43.36
38880;BME280;25887;30.194;-97.880;2023-08-12T06:29:33;98302.75;;;33.01;43.99
38880;BME280;25887;30.194;-97.880;2023-08-12T06:31:59;98297.00;;;32.95;43.65
38880;BME280;25887;30.194;-97.880;2023-08-12T06:34:25;98301.63;;;32.93;44.16
38880;BME280;25887;30.194;-97.880;2023-08-12T06:36:51;98303.72;;;32.90;43.75
38880;BME280;25887;30.194;-97.880;2023-08-12T06:39:17;98302.34;;;32.86;44.14
38880;BME280;25887;30.194;-97.880;2023-08-12T06:41:43;98305.13;;;32.84;44.34
38880;BME280;25887;30.194;-97.880;2023-08-12T06:44:09;98312.53;;;32.81;44.40
38880;BME280;25887;30.194;-97.880;2023-08-12T06:46:35;98303.84;;;32.79;44.77
38880;BME280;25887;30.194;-97.880;2023-08-12T06:49:02;98304.94;;;32.76;44.33
38880;BME280;25887;30.194;-97.880;2023-08-12T06:51:28;98310.44;;;32.75;45.09
38880;BME280;25887;30.194;-97.880;2023-08-12T06:53:54;98309.72;;;32.72;44.89
38880;BME280;25887;30.194;-97.880;2023-08-12T06:56:20;98310.72;;;32.71;44.69
38880;BME280;25887;30.194;-97.880;2023-08-12T06:58:49;98309.31;;;32.67;45.38
38880;BME280;25887;30.194;-97.880;2023-08-12T07:01:15;98316.59;;;32.65;44.84
38880;BME280;25887;30.194;-97.880;2023-08-12T07:03:41;98322.91;;;32.64;44.99
38880;BME280;25887;30.194;-97.880;2023-08-12T07:06:14;98317.72;;;32.63;45.17
38880;BME280;25887;30.194;-97.880;2023-08-12T07:08:41;98317.03;;;32.61;45.17
38880;BME280;25887;30.194;-97.880;2023-08-12T07:11:07;98314.50;;;32.59;45.56
38880;BME280;25887;30.194;-97.880;2023-08-12T07:13:33;98312.13;;;32.56;45.52
38880;BME280;25887;30.194;-97.880;2023-08-12T07:16:00;98319.41;;;32.54;45.69
38880;BME280;25887;30.194;-97.880;2023-08-12T07:18:26;98321.34;;;32.52;45.92
38880;BME280;25887;30.194;-97.880;2023-08-12T07:20:54;98318.28;;;32.47;46.08
38880;BME280;25887;30.194;-97.880;2023-08-12T07:23:20;98329.78;;;32.48;46.33
38880;BME280;25887;30.194;-97.880;2023-08-12T07:25:47;98330.16;;;32.43;45.93
38880;BME280;25887;30.194;-97.880;2023-08-12T07:28:13;98330.31;;;32.41;46.11
38880;BME280;25887;30.194;-97.880;2023-08-12T07:30:39;98330.47;;;32.40;46.76
38880;BME280;25887;30.194;-97.880;2023-08-12T07:33:05;98327.94;;;32.38;46.15
38880;BME280;25887;30.194;-97.880;2023-08-12T07:35:32;98325.28;;;32.38;46.34
38880;BME280;25887;30.194;-97.880;2023-08-12T07:37:59;98330.72;;;32.37;46.92
38880;BME280;25887;30.194;-97.880;2023-08-12T07:40:25;98327.38;;;32.35;46.89
38880;BME280;25887;30.194;-97.880;2023-08-12T07:42:52;98331.00;;;32.34;47.10
38880;BME280;25887;30.194;-97.880;2023-08-12T07:45:18;98325.94;;;32.31;46.65
38880;BME280;25887;30.194;-97.880;2023-08-12T07:47:44;98334.91;;;32.30;47.18
38880;BME280;25887;30.194;-97.880;2023-08-12T07:50:10;98328.88;;;32.28;46.79
38880;BME280;25887;30.194;-97.880;2023-08-12T07:52:36;98328.16;;;32.26;46.80
38880;BME280;25887;30.194;-97.880;2023-08-12T07:55:03;98323.84;;;32.25;46.98
38880;BME280;25887;30.194;-97.880;2023-08-12T07:57:29;98332.78;;;32.24;47.51
38880;BME280;25887;30.194;-97.880;2023-08-12T07:59:55;98322.41;;;32.21;47.37
38880;BME280;25887;30.194;-97.880;2023-08-12T08:02:21;98330.53;;;32.19;47.59
38880;BME280;25887;30.194;-97.880;2023-08-12T08:04:47;98326.19;;;32.18;47.79
38880;BME280;25887;30.194;-97.880;2023-08-12T08:07:15;98332.34;;;32.19;47.32
38880;BME280;25887;30.194;-97.880;2023-08-12T08:09:43;98328.84;;;32.18;47.92
38880;BME280;25887;30.194;-97.880;2023-08-12T08:12:10;98322.84;;;32.16;48.02
38880;BME280;25887;30.194;-97.880;2023-08-12T08:14:37;98318.50;;;32.15;47.88
38880;BME280;25887;30.194;-97.880;2023-08-12T08:17:03;98321.41;;;32.12;48.14
38880;BME280;25887;30.194;-97.880;2023-08-12T08:19:30;98323.53;;;32.08;48.03
38880;BME280;25887;30.194;-97.880;2023-08-12T08:21:57;98323.78;;;32.05;48.05
38880;BME280;25887;30.194;-97.880;2023-08-12T08:24:25;98320.56;;;32.02;48.48
38880;BME280;25887;30.194;-97.880;2023-08-12T08:26:51;98323.63;;;31.97;48.43
38880;BME280;25887;30.194;-97.880;2023-08-12T08:29:17;98323.75;;;31.96;48.79
38880;BME280;25887;30.194;-97.880;2023-08-12T08:31:43;98328.53;;;31.92;48.82
38880;BME280;25887;30.194;-97.880;2023-08-12T08:34:09;98327.78;;;31.90;48.46
38880;BME280;25887;30.194;-97.880;2023-08-12T08:36:35;98327.25;;;31.86;48.93
38880;BME280;25887;30.194;-97.880;2023-08-12T08:39:02;98329.19;;;31.84;48.91
38880;BME280;25887;30.194;-97.880;2023-08-12T08:41:31;98323.31;;;31.81;49.17
38880;BME280;25887;30.194;-97.880;2023-08-12T08:44:02;98318.28;;;31.78;49.12
38880;BME280;25887;30.194;-97.880;2023-08-12T08:46:32;98320.19;;;31.76;49.13
38880;BME280;25887;30.194;-97.880;2023-08-12T08:48:59;98327.31;;;31.75;49.48
38880;BME280;25887;30.194;-97.880;2023-08-12T08:51:30;98326.47;;;31.75;49.54
38880;BME280;25887;30.194;-97.880;2023-08-12T08:53:58;98322.97;;;31.74;49.56
38880;BME280;25887;30.194;-97.880;2023-08-12T08:56:24;98330.09;;;31.74;49.18
38880;BME280;25887;30.194;-97.880;2023-08-12T08:58:51;98329.53;;;31.70;49.46
38880;BME280;25887;30.194;-97.880;2023-08-12T09:01:26;98331.22;;;31.71;49.50
38880;BME280;25887;30.194;-97.880;2023-08-12T09:03:54;98333.31;;;31.68;49.95
38880;BME280;25887;30.194;-97.880;2023-08-12T09:06:21;98338.72;;;31.66;49.84
38880;BME280;25887;30.194;-97.880;2023-08-12T09:08:51;98334.41;;;31.65;50.01
38880;BME280;25887;30.194;-97.880;2023-08-12T09:11:19;98337.91;;;31.66;49.81
38880;BME280;25887;30.194;-97.880;2023-08-12T09:13:46;98335.25;;;31.66;50.38
38880;BME280;25887;30.194;-97.880;2023-08-12T09:16:13;98339.72;;;31.65;49.91
38880;BME280;25887;30.194;-97.880;2023-08-12T09:18:42;98331.75;;;31.65;50.52
38880;BME280;25887;30.194;-97.880;2023-08-12T09:21:09;98323.06;;;31.63;50.33
38880;BME280;25887;30.194;-97.880;2023-08-12T09:23:39;98321.53;;;31.60;50.28
38880;BME280;25887;30.194;-97.880;2023-08-12T09:26:19;98325.13;;;31.59;50.24
38880;BME280;25887;30.194;-97.880;2023-08-12T09:28:47;98321.09;;;31.55;50.67
38880;BME280;25887;30.194;-97.880;2023-08-12T09:31:27;98323.75;;;31.55;50.40
38880;BME280;25887;30.194;-97.880;2023-08-12T09:33:58;98328.59;;;31.50;50.80
38880;BME280;25887;30.194;-97.880;2023-08-12T09:36:29;98327.06;;;31.48;50.98
38880;BME280;25887;30.194;-97.880;2023-08-12T09:38:56;98326.50;;;31.44;50.91
38880;BME280;25887;30.194;-97.880;2023-08-12T09:41:26;98324.09;;;31.41;51.24
38880;BME280;25887;30.194;-97.880;2023-08-12T09:43:53;98315.44;;;31.39;51.33
38880;BME280;25887;30.194;-97.880;2023-08-12T09:46:22;98319.06;;;31.38;50.90
38880;BME280;25887;30.194;-97.880;2023-08-12T09:48:52;98312.06;;;31.37;51.44
38880;BME280;25887;30.194;-97.880;2023-08-12T09:51:20;98309.53;;;31.36;51.12
38880;BME280;25887;30.194;-97.880;2023-08-12T09:53:48;98305.06;;;31.36;51.69
38880;BME280;25887;30.194;-97.880;2023-08-12T09:56:19;98311.47;;;31.33;51.36
38880;BME280;25887;30.194;-97.880;2023-08-12T09:58:49;98309.94;;;31.31;51.69
38880;BME280;25887;30.194;-97.880;2023-08-12T10:01:19;98306.59;;;31.29;51.76
38880;BME280;25887;30.194;-97.880;2023-08-12T10:03:49;98311.44;;;31.24;51.93
38880;BME280;25887;30.194;-97.880;2023-08-12T10:06:17;98315.91;;;31.23;51.91
38880;BME280;25887;30.194;-97.880;2023-08-12T10:08:46;98320.38;;;31.23;51.96
38880;BME280;25887;30.194;-97.880;2023-08-12T10:11:14;98324.94;;;31.21;51.82
38880;BME280;25887;30.194;-97.880;2023-08-12T10:13:41;98324.06;;;31.20;51.96
38880;BME280;25887;30.194;-97.880;2023-08-12T10:16:09;98323.25;;;31.20;52.15
38880;BME280;25887;30.194;-97.880;2023-08-12T10:18:37;98331.19;;;31.20;52.39
38880;BME280;25887;30.194;-97.880;2023-08-12T10:21:04;98333.03;;;31.19;52.16
38880;BME280;25887;30.194;-97.880;2023-08-12T10:23:32;98326.88;;;31.19;52.38
38880;BME280;25887;30.194;-97.880;2023-08-12T10:26:00;98331.19;;;31.20;52.59
38880;BME280;25887;30.194;-97.880;2023-08-12T10:28:29;98326.75;;;31.20;52.63
38880;BME280;25887;30.194;-97.880;2023-08-12T10:30:57;98325.78;;;31.21;52.46
38880;BME280;25887;30.194;-97.880;2023-08-12T10:33:23;98325.69;;;31.23;52.36
38880;BME280;25887;30.194;-97.880;2023-08-12T10:35:50;98330.16;;;31.22;52.62
38880;BME280;25887;30.194;-97.880;2023-08-12T10:38:20;98330.16;;;31.22;52.42
38880;BME280;25887;30.194;-97.880;2023-08-12T10:40:47;98330.03;;;31.24;52.67
38880;BME280;25887;30.194;-97.880;2023-08-12T10:43:14;98327.50;;;31.22;52.84
38880;BME280;25887;30.194;-97.880;2023-08-12T10:45:47;98330.03;;;31.24;52.84
38880;BME280;25887;30.194;-97.880;2023-08-12T10:48:21;98324.72;;;31.24;52.80
38880;BME280;25887;30.194;-97.880;2023-08-12T10:50:53;98330.03;;;31.24;52.77
38880;BME280;25887;30.194;-97.880;2023-08-12T10:53:27;98336.31;;;31.23;52.94
38880;BME280;25887;30.194;-97.880;2023-08-12T10:56:02;98340.63;;;31.24;52.78
38880;BME280;25887;30.194;-97.880;2023-08-12T10:58:48;98332.53;;;31.25;53.01
38880;BME280;25887;30.194;-97.880;2023-08-12T11:01:17;98327.38;;;31.24;53.19
38880;BME280;25887;30.194;-97.880;2023-08-12T11:03:44;98331.84;;;31.23;53.48
38880;BME280;25887;30.194;-97.880;2023-08-12T11:06:11;98331.09;;;31.21;53.16
38880;BME280;25887;30.194;-97.880;2023-08-12T11:08:46;98349.56;;;31.23;52.95
38880;BME280;25887;30.194;-97.880;2023-08-12T11:11:39;98348.59;;;31.24;53.20
38880;BME280;25887;30.194;-97.880;2023-08-12T11:14:11;98351.25;;;31.24;52.90
38880;BME280;25887;30.194;-97.880;2023-08-12T11:16:43;98351.97;;;31.26;53.21
38880;BME280;25887;30.194;-97.880;2023-08-12T11:19:09;98352.66;;;31.28;53.13
38880;BME280;25887;30.194;-97.880;2023-08-12T11:21:38;98364.16;;;31.28;53.39
38880;BME280;25887;30.194;-97.880;2023-08-12T11:24:05;98362.19;;;31.30;53.34
38880;BME280;25887;30.194;-97.880;2023-08-12T11:26:32;98364.00;;;31.30;53.36
38880;BME280;25887;30.194;-97.880;2023-08-12T11:28:58;98365.81;;;31.29;53.26
38880;BME280;25887;30.194;-97.880;2023-08-12T11:31:24;98362.19;;;31.30;53.25
38880;BME280;25887;30.194;-97.880;2023-08-12T11:33:52;98360.50;;;31.29;53.72
38880;BME280;25887;30.194;-97.880;2023-08-12T11:36:20;98367.50;;;31.30;53.23
38880;BME280;25887;30.194;-97.880;2023-08-12T11:38:47;98366.66;;;31.30;53.30
38880;BME280;25887;30.194;-97.880;2023-08-12T11:41:13;98368.34;;;31.31;53.75
38880;BME280;25887;30.194;-97.880;2023-08-12T11:43:39;98378.97;;;31.31;53.37
38880;BME280;25887;30.194;-97.880;2023-08-12T11:46:05;98380.66;;;31.32;53.34
38880;BME280;25887;30.194;-97.880;2023-08-12T11:48:32;98378.81;;;31.32;53.32
38880;BME280;25887;30.194;-97.880;2023-08-12T11:50:58;98385.94;;;31.32;53.37
38880;BME280;25887;30.194;-97.880;2023-08-12T11:53:25;98384.97;;;31.33;53.70
38880;BME280;25887;30.194;-97.880;2023-08-12T11:55:51;98385.25;;;31.30;53.61
38880;BME280;25887;30.194;-97.880;2023-08-12T11:58:17;98387.91;;;31.30;53.43
38880;BME280;25887;30.194;-97.880;2023-08-12T12:00:46;98382.59;;;31.30;53.45
38880;BME280;25887;30.194;-97.880;2023-08-12T12:03:12;98378.13;;;31.30;53.70
38880;BME280;25887;30.194;-97.880;2023-08-12T12:05:38;98388.75;;;31.30;53.48
38880;BME280;25887;30.194;-97.880;2023-08-12T12:08:04;98401.19;;;31.30;53.42
38880;BME280;25887;30.194;-97.880;2023-08-12T12:10:34;98388.88;;;31.29;53.60
38880;BME280;25887;30.194;-97.880;2023-08-12T12:13:03;98400.34;;;31.29;53.80
38880;BME280;25887;30.194;-97.880;2023-08-12T12:15:30;98409.16;;;31.30;53.60
38880;BME280;25887;30.194;-97.880;2023-08-12T12:17:56;98404.81;;;31.29;53.50
38880;BME280;25887;30.194;-97.880;2023-08-12T12:20:23;98407.19;;;31.32;53.57
38880;BME280;25887;30.194;-97.880;2023-08-12T12:22:49;98411.66;;;31.31;53.66
38880;BME280;25887;30.194;-97.880;2023-08-12T12:25:17;98404.69;;;31.30;53.63
38880;BME280;25887;30.194;-97.880;2023-08-12T12:27:46;98408.16;;;31.31;53.52
38880;BME280;25887;30.194;-97.880;2023-08-12T12:30:14;98409.28;;;31.28;53.71
38880;BME280;25887;30.194;-97.880;2023-08-12T12:32:40;98419.03;;;31.28;53.73
38880;BME280;25887;30.194;-97.880;2023-08-12T12:35:07;98429.53;;;31.29;53.90
38880;BME280;25887;30.194;-97.880;2023-08-12T12:37:34;98429.53;;;31.29;53.62
38880;BME280;25887;30.194;-97.880;2023-08-12T12:40:00;98427.00;;;31.28;53.76
38880;BME280;25887;30.194;-97.880;2023-08-12T12:42:26;98434.97;;;31.28;54.07
38880;BME280;25887;30.194;-97.880;2023-08-12T12:44:52;98428.94;;;31.26;53.67